sensor_id;sensor_type;location;lat;lon;timestamp;temperature;humidity
14301;DHT22;7234;59.306;18.024;2024-02-21T00:02:11;0.60;99.90
14301;DHT22;7234;59.306;18.024;2024-02-21T00:04:38;0.50;99.90
14301;DHT22;7234;59.306;18.024;2024-02-21T00:07:08;0.50;99.90
14301;DHT22;7234;59.306;18.024;2024-02-21T00:09:35;0.50;99.90
14301;DHT22;7234;59.306;18.024;2024-02-21T00:12:02;0.40;99.90
14301;DHT22;7234;59.306;18.024;2024-02-21T00:14:31;0.40;99.90
14301;DHT22;7234;59.306;18.024;2024-02-21T00:16:59;0.40;99.90
14301;DHT22;7234;59.306;18.024;2024-02-21T00:19:29;0.50;99.90
14301;DHT22;7234;59.306;18.024;2024-02-21T00:21:56;0.40;99.90
14301;DHT22;7234;59.306;18.024;2024-02-21T00:24:29;0.50;99.90
14301;DHT22;7234;59.306;18.024;2024-02-21T00:26:56;0.50;99.90
14301;DHT22;7234;59.306;18.024;2024-02-21T00:29:26;0.60;99.90
14301;DHT22;7234;59.306;18.024;2024-02-21T00:31:54;0.60;99.90
14301;DHT22;7234;59.306;18.024;2024-02-21T00:34:27;0.50;99.90
14301;DHT22;7234;59.306;18.024;2024-02-21T00:36:54;0.60;99.90
14301;DHT22;7234;59.306;18.024;2024-02-21T00:39:21;0.60;99.90
14301;DHT22;7234;59.306;18.024;2024-02-21T00:41:50;0.60;99.90
14301;DHT22;7234;59.306;18.024;2024-02-21T00:44:17;0.60;99.90
14301;DHT22;7234;59.306;18.024;2024-02-21T00:46:44;0.60;99.90
14301;DHT22;7234;59.306;18.024;2024-02-21T00:49:13;0.70;99.90
14301;DHT22;7234;59.306;18.024;2024-02-21T00:51:44;0.70;99.90
14301;DHT22;7234;59.306;18.024;2024-02-21T00:54:11;0.80;99.90
14301;DHT22;7234;59.306;18.024;2024-02-21T00:56:38;0.80;99.90
14301;DHT22;7234;59.306;18.024;2024-02-21T00:59:05;0.70;99.90
14301;DHT22;7234;59.306;18.024;2024-02-21T01:01:35;0.80;99.90
14301;DHT22;7234;59.306;18.024;2024-02-21T01:04:02;0.80;99.90
14301;DHT22;7234;59.306;18.024;2024-02-21T01:06:29;0.80;99.90
14301;DHT22;7234;59.306;18.024;2024-02-21T01:08:58;0.70;99.90
14301;DHT22;7234;59.306;18.024;2024-02-21T01:11:25;0.80;99.90
14301;DHT22;7234;59.306;18.024;2024-02-21T01:13:52;0.80;99.90
14301;DHT22;7234;59.306;18.024;2024-02-21T01:16:19;0.80;99.90
14301;DHT22;7234;59.306;18.024;2024-02-21T01:18:46;0.80;99.90
14301;DHT22;7234;59.306;18.024;2024-02-21T01:21:13;0.80;99.90
14301;DHT22;7234;59.306;18.024;2024-02-21T01:23:40;0.80;99.90
14301;DHT22;7234;59.306;18.024;2024-02-21T01:26:09;0.90;99.90
14301;DHT22;7234;59.306;18.024;2024-02-21T01:28:38;0.90;99.90
14301;DHT22;7234;59.306;18.024;2024-02-21T01:31:05;0.90;99.90
14301;DHT22;7234;59.306;18.024;2024-02-21T01:33:33;0.80;99.90
14301;DHT22;7234;59.306;18.024;2024-02-21T01:36:01;0.90;99.90
14301;DHT22;7234;59.306;18.024;2024-02-21T01:38:28;1.00;99.90
14301;DHT22;7234;59.306;18.024;2024-02-21T01:40:58;0.90;99.90
14301;DHT22;7234;59.306;18.024;2024-02-21T01:43:26;0.90;99.90
14301;DHT22;7234;59.306;18.024;2024-02-21T01:45:55;0.90;99.90
14301;DHT22;7234;59.306;18.024;2024-02-21T01:48:26;0.90;99.90
14301;DHT22;7234;59.306;18.024;2024-02-21T01:50:55;0.90;99.90
14301;DHT22;7234;59.306;18.024;2024-02-21T01:53:27;0.90;99.90
14301;DHT22;7234;59.306;18.024;2024-02-21T01:55:55;0.90;99.90
14301;DHT22;7234;59.306;18.024;2024-02-21T01:58:23;0.90;99.90
14301;DHT22;7234;59.306;18.024;2024-02-21T02:00:54;1.00;99.90
14301;DHT22;7234;59.306;18.024;2024-02-21T02:03:26;1.00;99.90
14301;DHT22;7234;59.306;18.024;2024-02-21T02:05:55;0.90;99.90
14301;DHT22;7234;59.306;18.024;2024-02-21T02:08:23;0.90;99.90
14301;DHT22;7234;59.306;18.024;2024-02-21T02:10:53;1.00;99.90
14301;DHT22;7234;59.306;18.024;2024-02-21T02:13:21;1.00;99.90
14301;DHT22;7234;59.306;18.024;2024-02-21T02:15:48;1.00;99.90
14301;DHT22;7234;59.306;18.024;2024-02-21T02:18:18;1.00;99.90
14301;DHT22;7234;59.306;18.024;2024-02-21T02:20:49;1.00;99.90
14301;DHT22;7234;59.306;18.024;2024-02-21T02:23:22;1.10;99.90
14301;DHT22;7234;59.306;18.024;2024-02-21T02:25:53;1.10;99.90
14301;DHT22;7234;59.306;18.024;2024-02-21T02:28:20;1.10;99.90
14301;DHT22;7234;59.306;18.024;2024-02-21T02:30:48;1.20;99.90
14301;DHT22;7234;59.306;18.024;2024-02-21T02:33:15;1.20;99.90
14301;DHT22;7234;59.306;18.024;2024-02-21T02:35:43;1.10;99.90
14301;DHT22;7234;59.306;18.024;2024-02-21T02:38:11;1.20;99.90
14301;DHT22;7234;59.306;18.024;2024-02-21T02:40:40;1.10;99.90
14301;DHT22;7234;59.306;18.024;2024-02-21T02:43:08;1.10;99.90
14301;DHT22;7234;59.306;18.024;2024-02-21T02:45:35;1.10;99.90
14301;DHT22;7234;59.306;18.024;2024-02-21T02:48:05;1.10;99.90
14301;DHT22;7234;59.306;18.024;2024-02-21T02:50:32;1.10;99.90
14301;DHT22;7234;59.306;18.024;2024-02-21T02:52:59;1.20;99.90
14301;DHT22;7234;59.306;18.024;2024-02-21T02:55:26;1.20;99.90
14301;DHT22;7234;59.306;18.024;2024-02-21T02:57:55;1.10;99.90
14301;DHT22;7234;59.306;18.024;2024-02-21T03:00:24;1.10;99.90
14301;DHT22;7234;59.306;18.024;2024-02-21T03:02:56;1.10;99.90
14301;DHT22;7234;59.306;18.024;2024-02-21T03:05:23;1.20;99.90
14301;DHT22;7234;59.306;18.024;2024-02-21T03:07:50;1.20;99.90
14301;DHT22;7234;59.306;18.024;2024-02-21T03:10:21;1.20;99.90
14301;DHT22;7234;59.306;18.024;2024-02-21T03:12:48;1.20;99.90
14301;DHT22;7234;59.306;18.024;2024-02-21T03:15:20;1.20;99.90
14301;DHT22;7234;59.306;18.024;2024-02-21T03:17:47;1.30;99.90
14301;DHT22;7234;59.306;18.024;2024-02-21T03:20:15;1.30;99.90
14301;DHT22;7234;59.306;18.024;2024-02-21T03:22:42;1.40;99.90
14301;DHT22;7234;59.306;18.024;2024-02-21T03:25:09;1.30;99.90
14301;DHT22;7234;59.306;18.024;2024-02-21T03:27:37;1.30;99.90
14301;DHT22;7234;59.306;18.024;2024-02-21T03:30:05;1.40;99.90
14301;DHT22;7234;59.306;18.024;2024-02-21T03:32:34;1.30;99.90
14301;DHT22;7234;59.306;18.024;2024-02-21T03:35:01;1.40;99.90
14301;DHT22;7234;59.306;18.024;2024-02-21T03:37:28;1.40;99.90
14301;DHT22;7234;59.306;18.024;2024-02-21T03:39:55;1.40;99.90
14301;DHT22;7234;59.306;18.024;2024-02-21T03:42:25;1.40;99.90
14301;DHT22;7234;59.306;18.024;2024-02-21T03:44:58;1.40;99.90
14301;DHT22;7234;59.306;18.024;2024-02-21T03:47:25;1.40;99.90
14301;DHT22;7234;59.306;18.024;2024-02-21T03:49:53;1.40;99.90
14301;DHT22;7234;59.306;18.024;2024-02-21T03:52:20;1.40;99.90
14301;DHT22;7234;59.306;18.024;2024-02-21T03:54:48;1.60;99.90
14301;DHT22;7234;59.306;18.024;2024-02-21T03:57:15;1.50;99.90
14301;DHT22;7234;59.306;18.024;2024-02-21T03:59:44;1.50;99.90
14301;DHT22;7234;59.306;18.024;2024-02-21T04:02:11;1.50;99.90
14301;DHT22;7234;59.306;18.024;2024-02-21T04:04:42;1.50;99.90
14301;DHT22;7234;59.306;18.024;2024-02-21T04:07:15;1.50;99.90
14301;DHT22;7234;59.306;18.024;2024-02-21T04:09:42;1.60;99.90
14301;DHT22;7234;59.306;18.024;2024-02-21T04:12:09;1.50;99.90
14301;DHT22;7234;59.306;18.024;2024-02-21T04:14:36;1.60;99.90
14301;DHT22;7234;59.306;18.024;2024-02-21T04:17:05;1.60;99.90
14301;DHT22;7234;59.306;18.024;2024-02-21T04:19:33;1.60;99.90
14301;DHT22;7234;59.306;18.024;2024-02-21T04:22:00;1.60;99.90
14301;DHT22;7234;59.306;18.024;2024-02-21T04:24:28;1.70;99.90
14301;DHT22;7234;59.306;18.024;2024-02-21T04:27:02;1.60;99.90
14301;DHT22;7234;59.306;18.024;2024-02-21T04:29:29;1.70;99.90
14301;DHT22;7234;59.306;18.024;2024-02-21T04:31:59;1.70;99.90
14301;DHT22;7234;59.306;18.024;2024-02-21T04:34:28;1.70;99.90
14301;DHT22;7234;59.306;18.024;2024-02-21T04:36:55;1.70;99.90
14301;DHT22;7234;59.306;18.024;2024-02-21T04:39:22;1.70;99.90
14301;DHT22;7234;59.306;18.024;2024-02-21T04:41:50;1.80;99.90
14301;DHT22;7234;59.306;18.024;2024-02-21T04:44:17;1.70;99.90
14301;DHT22;7234;59.306;18.024;2024-02-21T04:46:47;1.80;99.90
14301;DHT22;7234;59.306;18.024;2024-02-21T04:49:14;1.90;99.90
14301;DHT22;7234;59.306;18.024;2024-02-21T04:51:41;1.90;99.90
14301;DHT22;7234;59.306;18.024;2024-02-21T04:54:08;1.80;99.90
14301;DHT22;7234;59.306;18.024;2024-02-21T04:56:36;1.90;99.90
14301;DHT22;7234;59.306;18.024;2024-02-21T04:59:04;1.90;99.90
14301;DHT22;7234;59.306;18.024;2024-02-21T05:01:32;1.90;99.90
14301;DHT22;7234;59.306;18.024;2024-02-21T05:04:02;1.90;99.90
14301;DHT22;7234;59.306;18.024;2024-02-21T05:06:29;2.00;99.90
14301;DHT22;7234;59.306;18.024;2024-02-21T05:08:56;2.00;99.90
14301;DHT22;7234;59.306;18.024;2024-02-21T05:11:24;2.00;99.90
14301;DHT22;7234;59.306;18.024;2024-02-21T05:13:51;1.90;99.90
14301;DHT22;7234;59.306;18.024;2024-02-21T05:16:19;1.90;99.90
14301;DHT22;7234;59.306;18.024;2024-02-21T05:18:49;1.90;99.90
14301;DHT22;7234;59.306;18.024;2024-02-21T05:21:26;1.90;99.90
14301;DHT22;7234;59.306;18.024;2024-02-21T05:23:55;1.90;99.90
14301;DHT22;7234;59.306;18.024;2024-02-21T05:26:22;2.00;99.90
14301;DHT22;7234;59.306;18.024;2024-02-21T05:28:53;2.00;99.90
14301;DHT22;7234;59.306;18.024;2024-02-21T05:31:22;1.90;99.90
14301;DHT22;7234;59.306;18.024;2024-02-21T05:33:49;2.00;99.90
14301;DHT22;7234;59.306;18.024;2024-02-21T05:36:16;2.00;99.90
14301;DHT22;7234;59.306;18.024;2024-02-21T05:38:43;2.00;99.90
14301;DHT22;7234;59.306;18.024;2024-02-21T05:41:10;2.10;99.90
14301;DHT22;7234;59.306;18.024;2024-02-21T05:43:38;2.00;99.90
14301;DHT22;7234;59.306;18.024;2024-02-21T05:46:05;2.10;99.90
14301;DHT22;7234;59.306;18.024;2024-02-21T05:48:34;2.10;99.90
14301;DHT22;7234;59.306;18.024;2024-02-21T05:51:02;2.10;99.90
14301;DHT22;7234;59.306;18.024;2024-02-21T05:53:29;2.20;99.90
14301;DHT22;7234;59.306;18.024;2024-02-21T05:55:56;2.30;99.90
14301;DHT22;7234;59.306;18.024;2024-02-21T05:58:30;2.30;99.90
14301;DHT22;7234;59.306;18.024;2024-02-21T06:00:57;2.30;99.90
14301;DHT22;7234;59.306;18.024;2024-02-21T06:03:24;2.20;99.90
14301;DHT22;7234;59.306;18.024;2024-02-21T06:05:53;2.20;99.90
14301;DHT22;7234;59.306;18.024;2024-02-21T06:08:21;2.20;99.90
14301;DHT22;7234;59.306;18.024;2024-02-21T06:10:48;2.20;99.90
14301;DHT22;7234;59.306;18.024;2024-02-21T06:13:19;2.20;99.90
14301;DHT22;7234;59.306;18.024;2024-02-21T06:15:51;2.20;99.90
14301;DHT22;7234;59.306;18.024;2024-02-21T06:18:19;2.30;99.90
14301;DHT22;7234;59.306;18.024;2024-02-21T06:20:49;2.30;99.90
14301;DHT22;7234;59.306;18.024;2024-02-21T06:23:19;2.30;99.90
14301;DHT22;7234;59.306;18.024;2024-02-21T06:25:49;2.30;99.90
14301;DHT22;7234;59.306;18.024;2024-02-21T06:28:17;2.40;99.90
14301;DHT22;7234;59.306;18.024;2024-02-21T06:30:45;2.20;99.90
14301;DHT22;7234;59.306;18.024;2024-02-21T06:33:17;2.30;99.90
14301;DHT22;7234;59.306;18.024;2024-02-21T06:35:48;2.30;99.90
14301;DHT22;7234;59.306;18.024;2024-02-21T06:38:20;2.30;99.90
14301;DHT22;7234;59.306;18.024;2024-02-21T06:40:47;2.30;99.90
14301;DHT22;7234;59.306;18.024;2024-02-21T06:43:18;2.30;99.90
14301;DHT22;7234;59.306;18.024;2024-02-21T06:45:46;2.40;99.90
14301;DHT22;7234;59.306;18.024;2024-02-21T06:48:17;2.40;99.90
14301;DHT22;7234;59.306;18.024;2024-02-21T06:50:45;2.50;99.90
14301;DHT22;7234;59.306;18.024;2024-02-21T06:53:12;2.50;99.90
14301;DHT22;7234;59.306;18.024;2024-02-21T06:55:41;2.50;99.90
14301;DHT22;7234;59.306;18.024;2024-02-21T06:58:08;2.50;99.90
14301;DHT22;7234;59.306;18.024;2024-02-21T07:00:38;2.50;99.90
14301;DHT22;7234;59.306;18.024;2024-02-21T07:03:05;2.50;99.90
14301;DHT22;7234;59.306;18.024;2024-02-21T07:05:32;2.50;99.90
14301;DHT22;7234;59.306;18.024;2024-02-21T07:08:00;2.50;99.90
14301;DHT22;7234;59.306;18.024;2024-02-21T07:10:29;2.60;99.90
14301;DHT22;7234;59.306;18.024;2024-02-21T07:12:57;2.60;99.90
14301;DHT22;7234;59.306;18.024;2024-02-21T07:15:25;2.60;99.90
14301;DHT22;7234;59.306;18.024;2024-02-21T07:17:55;2.50;99.90
14301;DHT22;7234;59.306;18.024;2024-02-21T07:20:22;2.50;99.90
14301;DHT22;7234;59.306;18.024;2024-02-21T07:22:49;2.70;99.90
14301;DHT22;7234;59.306;18.024;2024-02-21T07:25:16;2.70;99.90
14301;DHT22;7234;59.306;18.024;2024-02-21T07:27:44;2.70;99.90
14301;DHT22;7234;59.306;18.024;2024-02-21T07:30:16;2.70;99.90
14301;DHT22;7234;59.306;18.024;2024-02-21T07:32:43;2.60;99.90
14301;DHT22;7234;59.306;18.024;2024-02-21T07:35:11;2.60;99.90
14301;DHT22;7234;59.306;18.024;2024-02-21T07:37:39;2.60;99.90
14301;DHT22;7234;59.306;18.024;2024-02-21T07:40:11;2.70;99.90
14301;DHT22;7234;59.306;18.024;2024-02-21T07:42:40;2.70;99.90
14301;DHT22;7234;59.306;18.024;2024-02-21T07:45:08;2.70;99.90
14301;DHT22;7234;59.306;18.024;2024-02-21T07:47:37;2.70;99.90
14301;DHT22;7234;59.306;18.024;2024-02-21T07:50:05;2.70;99.90
14301;DHT22;7234;59.306;18.024;2024-02-21T07:52:35;2.70;99.90
14301;DHT22;7234;59.306;18.024;2024-02-21T07:55:02;2.70;99.90
14301;DHT22;7234;59.306;18.024;2024-02-21T07:57:29;2.70;99.90
14301;DHT22;7234;59.306;18.024;2024-02-21T07:59:57;2.70;99.90
14301;DHT22;7234;59.306;18.024;2024-02-21T08:02:24;2.90;99.90
14301;DHT22;7234;59.306;18.024;2024-02-21T08:04:53;2.90;99.90
14301;DHT22;7234;59.306;18.024;2024-02-21T08:07:20;2.90;99.90
14301;DHT22;7234;59.306;18.024;2024-02-21T08:09:47;2.90;99.90
14301;DHT22;7234;59.306;18.024;2024-02-21T08:12:14;2.80;99.90
14301;DHT22;7234;59.306;18.024;2024-02-21T08:14:41;2.90;99.90
14301;DHT22;7234;59.306;18.024;2024-02-21T08:17:09;2.90;99.90
14301;DHT22;7234;59.306;18.024;2024-02-21T08:19:38;2.90;99.90
14301;DHT22;7234;59.306;18.024;2024-02-21T08:22:07;2.90;99.90
14301;DHT22;7234;59.306;18.024;2024-02-21T08:24:37;3.00;99.90
14301;DHT22;7234;59.306;18.024;2024-02-21T08:27:06;3.00;99.90
14301;DHT22;7234;59.306;18.024;2024-02-21T08:29:33;3.10;99.90
14301;DHT22;7234;59.306;18.024;2024-02-21T08:32:02;3.10;99.90
14301;DHT22;7234;59.306;18.024;2024-02-21T08:34:29;3.00;99.90
14301;DHT22;7234;59.306;18.024;2024-02-21T08:36:59;3.00;99.90
14301;DHT22;7234;59.306;18.024;2024-02-21T08:39:29;3.10;99.90
14301;DHT22;7234;59.306;18.024;2024-02-21T08:41:57;3.00;99.90
14301;DHT22;7234;59.306;18.024;2024-02-21T08:44:24;3.10;99.90
14301;DHT22;7234;59.306;18.024;2024-02-21T08:46:52;3.10;99.90
14301;DHT22;7234;59.306;18.024;2024-02-21T08:49:19;3.20;99.90
14301;DHT22;7234;59.306;18.024;2024-02-21T08:51:46;3.20;99.90
14301;DHT22;7234;59.306;18.024;2024-02-21T08:54:16;3.30;99.90
14301;DHT22;7234;59.306;18.024;2024-02-21T08:56:48;3.40;99.90
14301;DHT22;7234;59.306;18.024;2024-02-21T08:59:16;3.40;99.90
14301;DHT22;7234;59.306;18.024;2024-02-21T09:01:46;3.40;99.90
14301;DHT22;7234;59.306;18.024;2024-02-21T09:04:16;3.40;99.90
14301;DHT22;7234;59.306;18.024;2024-02-21T09:06:43;3.50;99.90
14301;DHT22;7234;59.306;18.024;2024-02-21T09:09:12;3.50;99.90
14301;DHT22;7234;59.306;18.024;2024-02-21T09:11:41;3.50;99.90
14301;DHT22;7234;59.306;18.024;2024-02-21T09:14:10;3.50;99.90
14301;DHT22;7234;59.306;18.024;2024-02-21T09:16:37;3.50;99.90
14301;DHT22;7234;59.306;18.024;2024-02-21T09:19:05;3.60;99.90
14301;DHT22;7234;59.306;18.024;2024-02-21T09:21:33;3.70;99.90
14301;DHT22;7234;59.306;18.024;2024-02-21T09:24:00;3.70;99.90
14301;DHT22;7234;59.306;18.024;2024-02-21T09:26:27;3.80;99.90
14301;DHT22;7234;59.306;18.024;2024-02-21T09:28:55;3.80;99.90
14301;DHT22;7234;59.306;18.024;2024-02-21T09:31:26;3.80;99.90
14301;DHT22;7234;59.306;18.024;2024-02-21T09:33:55;3.80;99.90
14301;DHT22;7234;59.306;18.024;2024-02-21T09:36:25;3.80;99.90
14301;DHT22;7234;59.306;18.024;2024-02-21T09:38:53;3.80;99.90
14301;DHT22;7234;59.306;18.024;2024-02-21T09:41:25;3.90;99.90
14301;DHT22;7234;59.306;18.024;2024-02-21T09:43:53;3.90;99.90
14301;DHT22;7234;59.306;18.024;2024-02-21T09:46:34;3.90;99.90
14301;DHT22;7234;59.306;18.024;2024-02-21T09:49:14;3.90;99.90
14301;DHT22;7234;59.306;18.024;2024-02-21T09:51:51;4.00;99.90
14301;DHT22;7234;59.306;18.024;2024-02-21T09:54:21;4.10;99.90
14301;DHT22;7234;59.306;18.024;2024-02-21T09:56:48;4.10;99.90
14301;DHT22;7234;59.306;18.024;2024-02-21T09:59:16;4.10;99.90
14301;DHT22;7234;59.306;18.024;2024-02-21T10:01:45;4.10;99.90
14301;DHT22;7234;59.306;18.024;2024-02-21T10:04:15;4.10;99.90
14301;DHT22;7234;59.306;18.024;2024-02-21T10:06:42;4.10;99.90
14301;DHT22;7234;59.306;18.024;2024-02-21T10:09:20;4.10;99.90
14301;DHT22;7234;59.306;18.024;2024-02-21T10:11:48;4.10;99.90
14301;DHT22;7234;59.306;18.024;2024-02-21T10:14:16;4.00;99.90
14301;DHT22;7234;59.306;18.024;2024-02-21T10:16:48;4.00;99.90
14301;DHT22;7234;59.306;18.024;2024-02-21T10:19:18;4.10;99.90
14301;DHT22;7234;59.306;18.024;2024-02-21T10:22:00;4.10;99.90
14301;DHT22;7234;59.306;18.024;2024-02-21T10:24:29;4.10;99.90
14301;DHT22;7234;59.306;18.024;2024-02-21T10:27:01;4.20;99.90
14301;DHT22;7234;59.306;18.024;2024-02-21T10:29:30;4.10;99.90
14301;DHT22;7234;59.306;18.024;2024-02-21T10:32:06;4.10;99.90
14301;DHT22;7234;59.306;18.024;2024-02-21T10:34:34;4.10;99.90
14301;DHT22;7234;59.306;18.024;2024-02-21T10:37:02;4.10;99.90
14301;DHT22;7234;59.306;18.024;2024-02-21T10:39:30;4.00;99.90
14301;DHT22;7234;59.306;18.024;2024-02-21T10:42:00;4.00;99.90
14301;DHT22;7234;59.306;18.024;2024-02-21T10:44:30;4.00;99.90
14301;DHT22;7234;59.306;18.024;2024-02-21T10:46:58;4.10;99.90
14301;DHT22;7234;59.306;18.024;2024-02-21T10:49:31;4.10;99.90
14301;DHT22;7234;59.306;18.024;2024-02-21T10:52:14;4.10;99.90
14301;DHT22;7234;59.306;18.024;2024-02-21T10:54:45;4.20;99.90
14301;DHT22;7234;59.306;18.024;2024-02-21T10:57:13;4.20;99.90
14301;DHT22;7234;59.306;18.024;2024-02-21T10:59:41;4.20;99.90
14301;DHT22;7234;59.306;18.024;2024-02-21T11:02:10;4.30;99.90
14301;DHT22;7234;59.306;18.024;2024-02-21T11:04:40;4.30;99.90
14301;DHT22;7234;59.306;18.024;2024-02-21T11:09:38;4.10;99.90
14301;DHT22;7234;59.306;18.024;2024-02-21T11:12:06;4.20;99.90
14301;DHT22;7234;59.306;18.024;2024-02-21T11:14:34;4.20;99.90
14301;DHT22;7234;59.306;18.024;2024-02-21T11:17:03;4.20;99.90
14301;DHT22;7234;59.306;18.024;2024-02-21T11:19:42;4.20;99.90
14301;DHT22;7234;59.306;18.024;2024-02-21T11:22:15;4.10;99.90
14301;DHT22;7234;59.306;18.024;2024-02-21T11:24:45;4.20;99.90
14301;DHT22;7234;59.306;18.024;2024-02-21T11:27:13;4.20;99.90
14301;DHT22;7234;59.306;18.024;2024-02-21T11:29:42;4.20;99.90
14301;DHT22;7234;59.306;18.024;2024-02-21T11:32:10;4.20;99.90
14301;DHT22;7234;59.306;18.024;2024-02-21T11:34:38;4.20;99.90
14301;DHT22;7234;59.306;18.024;2024-02-21T11:37:14;4.30;99.90
14301;DHT22;7234;59.306;18.024;2024-02-21T11:39:42;4.30;99.90
14301;DHT22;7234;59.306;18.024;2024-02-21T11:42:12;4.30;99.90
14301;DHT22;7234;59.306;18.024;2024-02-21T11:44:40;4.30;99.90
14301;DHT22;7234;59.306;18.024;2024-02-21T11:47:08;4.30;99.90
14301;DHT22;7234;59.306;18.024;2024-02-21T11:49:37;4.40;99.90
14301;DHT22;7234;59.306;18.024;2024-02-21T11:52:05;4.40;99.90
14301;DHT22;7234;59.306;18.024;2024-02-21T11:54:34;4.40;99.90
14301;DHT22;7234;59.306;18.024;2024-02-21T11:57:02;4.50;99.90
14301;DHT22;7234;59.306;18.024;2024-02-21T11:59:30;4.50;99.90
14301;DHT22;7234;59.306;18.024;2024-02-21T12:01:58;4.40;99.90
14301;DHT22;7234;59.306;18.024;2024-02-21T12:04:26;4.50;99.90
14301;DHT22;7234;59.306;18.024;2024-02-21T12:06:53;4.50;99.90
14301;DHT22;7234;59.306;18.024;2024-02-21T12:09:26;4.50;99.90
14301;DHT22;7234;59.306;18.024;2024-02-21T12:12:03;4.50;99.90
14301;DHT22;7234;59.306;18.024;2024-02-21T12:14:31;4.50;99.90
14301;DHT22;7234;59.306;18.024;2024-02-21T12:16:58;4.50;99.90
14301;DHT22;7234;59.306;18.024;2024-02-21T12:19:28;4.50;99.90
14301;DHT22;7234;59.306;18.024;2024-02-21T12:21:55;4.60;99.90
14301;DHT22;7234;59.306;18.024;2024-02-21T12:24:26;4.50;99.90
14301;DHT22;7234;59.306;18.024;2024-02-21T12:26:54;4.40;99.90
14301;DHT22;7234;59.306;18.024;2024-02-21T12:29:24;4.60;99.90
14301;DHT22;7234;59.306;18.024;2024-02-21T12:31:52;4.60;99.90
14301;DHT22;7234;59.306;18.024;2024-02-21T12:34:19;4.60;99.90
14301;DHT22;7234;59.306;18.024;2024-02-21T12:36:49;4.60;99.90
14301;DHT22;7234;59.306;18.024;2024-02-21T12:39:17;4.50;99.90
14301;DHT22;7234;59.306;18.024;2024-02-21T12:41:44;4.50;99.90
14301;DHT22;7234;59.306;18.024;2024-02-21T12:44:16;4.60;99.90
14301;DHT22;7234;59.306;18.024;2024-02-21T12:46:45;4.60;99.90
14301;DHT22;7234;59.306;18.024;2024-02-21T12:49:17;4.60;99.90
14301;DHT22;7234;59.306;18.024;2024-02-21T12:51:44;4.60;99.90
14301;DHT22;7234;59.306;18.024;2024-02-21T12:54:12;4.60;99.90
14301;DHT22;7234;59.306;18.024;2024-02-21T12:56:39;4.60;99.90
14301;DHT22;7234;59.306;18.024;2024-02-21T12:59:07;4.70;99.90
14301;DHT22;7234;59.306;18.024;2024-02-21T13:01:34;4.70;99.90
14301;DHT22;7234;59.306;18.024;2024-02-21T13:04:03;4.80;99.90
14301;DHT22;7234;59.306;18.024;2024-02-21T13:06:30;4.80;99.90
14301;DHT22;7234;59.306;18.024;2024-02-21T13:08:59;4.90;99.90
14301;DHT22;7234;59.306;18.024;2024-02-21T13:11:29;4.90;99.90
14301;DHT22;7234;59.306;18.024;2024-02-21T13:13:56;4.90;99.90
14301;DHT22;7234;59.306;18.024;2024-02-21T13:16:27;4.90;99.90
14301;DHT22;7234;59.306;18.024;2024-02-21T13:18:54;4.90;99.90
14301;DHT22;7234;59.306;18.024;2024-02-21T13:21:22;4.90;99.90
14301;DHT22;7234;59.306;18.024;2024-02-21T13:23:49;4.90;99.90
14301;DHT22;7234;59.306;18.024;2024-02-21T13:26:16;4.80;99.90
14301;DHT22;7234;59.306;18.024;2024-02-21T13:28:47;4.80;99.90
14301;DHT22;7234;59.306;18.024;2024-02-21T13:31:14;4.80;99.90
14301;DHT22;7234;59.306;18.024;2024-02-21T13:33:43;4.90;99.90
14301;DHT22;7234;59.306;18.024;2024-02-21T13:36:11;4.80;99.90
14301;DHT22;7234;59.306;18.024;2024-02-21T13:38:39;4.90;99.90
14301;DHT22;7234;59.306;18.024;2024-02-21T13:41:07;4.90;99.90
14301;DHT22;7234;59.306;18.024;2024-02-21T13:43:34;4.90;99.90
14301;DHT22;7234;59.306;18.024;2024-02-21T13:46:02;4.90;99.90
14301;DHT22;7234;59.306;18.024;2024-02-21T13:48:30;4.90;99.90
14301;DHT22;7234;59.306;18.024;2024-02-21T13:50:59;4.90;99.90
14301;DHT22;7234;59.306;18.024;2024-02-21T13:53:27;4.80;99.90
14301;DHT22;7234;59.306;18.024;2024-02-21T13:55:56;4.90;99.90
14301;DHT22;7234;59.306;18.024;2024-02-21T13:58:23;4.90;99.90
14301;DHT22;7234;59.306;18.024;2024-02-21T14:00:51;4.90;99.90
14301;DHT22;7234;59.306;18.024;2024-02-21T14:03:19;4.90;99.90
14301;DHT22;7234;59.306;18.024;2024-02-21T14:05:46;4.90;99.90
14301;DHT22;7234;59.306;18.024;2024-02-21T14:08:14;4.90;99.90
14301;DHT22;7234;59.306;18.024;2024-02-21T14:10:41;4.90;99.90
14301;DHT22;7234;59.306;18.024;2024-02-21T14:13:10;4.90;99.90
14301;DHT22;7234;59.306;18.024;2024-02-21T14:15:37;5.00;99.90
14301;DHT22;7234;59.306;18.024;2024-02-21T14:18:06;5.00;99.90
14301;DHT22;7234;59.306;18.024;2024-02-21T14:20:35;5.00;99.90
14301;DHT22;7234;59.306;18.024;2024-02-21T14:23:03;5.00;99.90
14301;DHT22;7234;59.306;18.024;2024-02-21T14:25:30;4.90;99.90
14301;DHT22;7234;59.306;18.024;2024-02-21T14:27:58;5.00;99.90
14301;DHT22;7234;59.306;18.024;2024-02-21T14:30:30;5.00;99.90
14301;DHT22;7234;59.306;18.024;2024-02-21T14:32:57;5.00;99.90
14301;DHT22;7234;59.306;18.024;2024-02-21T14:35:24;4.90;99.90
14301;DHT22;7234;59.306;18.024;2024-02-21T14:37:52;4.90;99.90
14301;DHT22;7234;59.306;18.024;2024-02-21T14:40:22;4.80;99.90
14301;DHT22;7234;59.306;18.024;2024-02-21T14:42:49;4.80;99.90
14301;DHT22;7234;59.306;18.024;2024-02-21T14:45:18;4.90;99.90
14301;DHT22;7234;59.306;18.024;2024-02-21T14:47:49;4.90;99.90
14301;DHT22;7234;59.306;18.024;2024-02-21T14:50:16;4.80;99.90
14301;DHT22;7234;59.306;18.024;2024-02-21T14:52:44;4.90;99.90
14301;DHT22;7234;59.306;18.024;2024-02-21T14:55:16;4.90;99.90
14301;DHT22;7234;59.306;18.024;2024-02-21T14:57:43;4.90;99.90
14301;DHT22;7234;59.306;18.024;2024-02-21T15:00:11;4.90;99.90
14301;DHT22;7234;59.306;18.024;2024-02-21T15:02:38;4.80;99.90
14301;DHT22;7234;59.306;18.024;2024-02-21T15:05:08;4.80;99.90
14301;DHT22;7234;59.306;18.024;2024-02-21T15:07:35;4.90;99.90
14301;DHT22;7234;59.306;18.024;2024-02-21T15:10:03;4.90;99.90
14301;DHT22;7234;59.306;18.024;2024-02-21T15:12:32;4.90;99.90
14301;DHT22;7234;59.306;18.024;2024-02-21T15:14:59;4.90;99.90
14301;DHT22;7234;59.306;18.024;2024-02-21T15:17:26;5.00;99.90
14301;DHT22;7234;59.306;18.024;2024-02-21T15:19:53;4.90;99.90
14301;DHT22;7234;59.306;18.024;2024-02-21T15:22:26;4.90;99.90
14301;DHT22;7234;59.306;18.024;2024-02-21T15:24:53;5.10;99.90
14301;DHT22;7234;59.306;18.024;2024-02-21T15:27:20;5.00;99.90
14301;DHT22;7234;59.306;18.024;2024-02-21T15:29:47;5.00;99.90
14301;DHT22;7234;59.306;18.024;2024-02-21T15:32:14;5.00;99.90
14301;DHT22;7234;59.306;18.024;2024-02-21T15:34:44;5.00;99.90
14301;DHT22;7234;59.306;18.024;2024-02-21T15:37:11;4.90;99.90
14301;DHT22;7234;59.306;18.024;2024-02-21T15:39:42;5.00;99.90
14301;DHT22;7234;59.306;18.024;2024-02-21T15:42:10;5.00;99.90
14301;DHT22;7234;59.306;18.024;2024-02-21T15:44:37;5.00;99.90
14301;DHT22;7234;59.306;18.024;2024-02-21T15:47:05;5.00;99.90
14301;DHT22;7234;59.306;18.024;2024-02-21T15:49:37;5.00;99.90
14301;DHT22;7234;59.306;18.024;2024-02-21T15:52:05;5.00;99.90
14301;DHT22;7234;59.306;18.024;2024-02-21T15:54:33;5.10;99.90
14301;DHT22;7234;59.306;18.024;2024-02-21T15:57:03;5.10;99.90